createdAt,value
2022-08-11T00:03:07.618Z,86.21
2022-08-11T00:06:11.278Z,86.40
2022-08-11T00:09:18.278Z,86.94
2022-08-11T00:12:21.649Z,87.76
2022-08-11T00:15:25.258Z,87.09
2022-08-11T00:18:31.547Z,87.14
2022-08-11T00:22:04.770Z,87.78
2022-08-11T00:25:12.108Z,87.12
2022-08-11T00:28:28.758Z,87.51
2022-08-11T00:31:33.215Z,88.37
2022-08-11T00:34:39.556Z,88.50
2022-08-11T00:37:49.256Z,89.37
2022-08-11T00:40:58.635Z,88.52
2022-08-11T00:44:29.571Z,89.35
2022-08-11T00:47:49.917Z,89.50
2022-08-11T00:51:10.974Z,89.19
2022-08-11T00:54:33.657Z,90.02
2022-08-11T00:58:00.366Z,90.70
2022-08-11T01:01:28.436Z,89.81
2022-08-11T01:04:57.504Z,89.95
2022-08-11T01:08:26.452Z,91.27
2022-08-11T01:11:55.655Z,91.22
2022-08-11T01:15:35.830Z,91.21
2022-08-11T01:19:32.003Z,91.79
2022-08-11T01:23:20.833Z,92.02
2022-08-11T01:27:03.891Z,91.72
2022-08-11T01:30:49.583Z,91.39
2022-08-11T01:34:33.928Z,92.46
2022-08-11T01:38:09.846Z,92.63
2022-08-11T01:41:46.966Z,92.61
2022-08-11T01:45:07.162Z,92.49
2022-08-11T01:48:17.027Z,92.79
2022-08-11T01:51:30.214Z,93.14
2022-08-11T01:54:42.837Z,93.47
2022-08-11T01:57:51.913Z,92.40
2022-08-11T02:01:03.634Z,92.36
2022-08-11T02:04:24.461Z,93.21
2022-08-11T02:07:34.548Z,92.76
2022-08-11T02:11:02.597Z,93.22
2022-08-11T02:14:20.726Z,92.84
2022-08-11T02:17:41.922Z,92.48
2022-08-11T02:21:06.589Z,92.66
2022-08-11T02:24:18.889Z,93.42
2022-08-11T02:27:26.349Z,93.93
2022-08-11T02:30:37.912Z,94.64
2022-08-11T02:33:43.308Z,94.81
2022-08-11T02:36:53.691Z,94.82
2022-08-11T02:40:12.953Z,94.04
2022-08-11T02:43:35.943Z,94.65
2022-08-11T02:46:50.759Z,94.90
2022-08-11T02:50:07.191Z,95.35
2022-08-11T02:53:18.380Z,94.70
2022-08-11T02:56:28.413Z,95.35
2022-08-11T02:59:54.154Z,95.67
2022-08-11T03:03:08.725Z,95.49
2022-08-11T03:06:20.728Z,95.38
2022-08-11T03:09:28.320Z,95.33
2022-08-11T03:12:53.927Z,95.75
2022-08-11T03:16:31.038Z,95.35
2022-08-11T03:19:45.086Z,94.25
2022-08-11T03:22:57.797Z,94.38
2022-08-11T03:26:07.222Z,95.80
2022-08-11T03:29:18.360Z,96.25
2022-08-11T03:32:33.931Z,96.50
2022-08-11T03:35:41.795Z,96.33
2022-08-11T03:38:56.987Z,96.18
2022-08-11T03:42:14.723Z,95.99
2022-08-11T03:45:26.064Z,96.15
2022-08-11T03:48:42.173Z,96.21
2022-08-11T03:51:52.471Z,96.70
2022-08-11T03:55:01.703Z,97.05
2022-08-11T03:58:50.081Z,95.89
2022-08-11T04:02:13.976Z,96.61
2022-08-11T04:05:40.662Z,96.34
2022-08-11T04:09:07.525Z,96.61
2022-08-11T04:12:45.731Z,97.09
2022-08-11T04:16:17.498Z,96.74
2022-08-11T04:19:53.163Z,96.56
2022-08-11T04:24:35.792Z,96.87
2022-08-11T04:27:14.639Z,97.28
2022-08-11T04:30:21.289Z,97.22
2022-08-11T04:33:56.083Z,96.84
2022-08-11T04:37:35.611Z,95.87
2022-08-11T04:41:26.847Z,97.20
2022-08-11T04:45:03.494Z,97.44
2022-08-11T04:48:43.501Z,97.05
2022-08-11T04:52:37.505Z,97.34
2022-08-11T04:56:21.461Z,97.31
2022-08-11T05:00:07.526Z,97.32
2022-08-11T05:03:39.742Z,97.21
2022-08-11T05:07:13.625Z,97.81
2022-08-11T05:10:30.012Z,97.64
2022-08-11T05:13:53.366Z,96.99
2022-08-11T05:17:17.360Z,96.66
2022-08-11T05:20:42.237Z,97.09
2022-08-11T05:24:07.477Z,97.02
2022-08-11T05:27:30.006Z,96.18
2022-08-11T05:30:50.983Z,96.50
2022-08-11T05:34:16.240Z,96.69
2022-08-11T05:37:27.208Z,95.78
2022-08-11T05:40:50.941Z,95.20
2022-08-11T05:44:21.113Z,94.88
2022-08-11T05:47:44.818Z,95.57
2022-08-11T05:51:11.416Z,94.95
2022-08-11T05:54:35.304Z,95.85
2022-08-11T05:57:50.871Z,95.26
2022-08-11T06:00:54.805Z,95.45
2022-08-11T06:04:22.795Z,95.47
2022-08-11T06:07:29.759Z,94.79
2022-08-11T06:10:51.507Z,94.12
2022-08-11T06:13:54.582Z,93.54
2022-08-11T06:17:00.242Z,93.15
2022-08-11T06:20:07.218Z,92.42
2022-08-11T06:23:11.540Z,91.77
2022-08-11T06:26:16.908Z,92.30
2022-08-11T06:29:20.238Z,90.92
2022-08-11T06:32:44.410Z,90.00
2022-08-11T06:35:55.285Z,89.62
2022-08-11T06:39:08.484Z,89.67
2022-08-11T06:42:24.949Z,89.32
2022-08-11T06:45:47.748Z,89.31
2022-08-11T06:48:51.372Z,88.83
2022-08-11T06:51:54.643Z,86.35
2022-08-11T06:55:11.371Z,85.49
2022-08-11T06:58:52.803Z,86.84
2022-08-11T07:02:05.947Z,84.56
2022-08-11T07:05:13.476Z,85.85
2022-08-11T07:08:49.360Z,84.63
2022-08-11T07:12:25.523Z,80.14
2022-08-11T07:16:12.358Z,81.33
2022-08-11T07:19:26.000Z,80.08
2022-08-11T07:23:05.539Z,78.09
2022-08-11T07:26:37.866Z,76.87
2022-08-11T07:29:45.698Z,79.16
2022-08-11T07:32:52.906Z,76.01
2022-08-11T07:36:01.105Z,73.53
2022-08-11T07:39:04.506Z,75.11
2022-08-11T07:42:09.430Z,71.40
2022-08-11T07:45:30.482Z,70.37
2022-08-11T07:48:53.614Z,70.25
2022-08-11T07:52:14.578Z,68.17
2022-08-11T07:55:22.019Z,67.56
2022-08-11T07:59:07.485Z,64.72
2022-08-11T08:02:31.138Z,63.58
2022-08-11T08:05:53.580Z,63.32
2022-08-11T08:09:15.321Z,62.95
2022-08-11T08:12:38.963Z,60.96
2022-08-11T08:15:59.905Z,59.67
2022-08-11T08:19:02.838Z,59.91
2022-08-11T08:22:38.271Z,58.73
2022-08-11T08:25:32.134Z,58.10
2022-08-11T08:28:35.628Z,56.47
2022-08-11T08:31:39.723Z,54.41
2022-08-11T08:34:42.328Z,53.62
2022-08-11T08:37:47.797Z,53.58
2022-08-11T08:40:55.964Z,53.42
2022-08-11T08:44:34.729Z,51.62
2022-08-11T08:47:41.761Z,51.64
2022-08-11T08:51:08.627Z,50.19
2022-08-11T08:54:18.720Z,52.57
2022-08-11T08:57:23.831Z,50.76
2022-08-11T09:00:26.800Z,48.35
2022-08-11T09:04:04.217Z,48.35
2022-08-11T09:06:52.817Z,46.89
2022-08-11T09:10:00.110Z,46.61
2022-08-11T09:13:08.197Z,44.76
2022-08-11T09:16:11.854Z,44.23
2022-08-11T09:19:17.423Z,43.83
2022-08-11T09:22:44.265Z,42.95
2022-08-11T09:26:06.567Z,41.83
2022-08-11T09:29:10.647Z,38.98
2022-08-11T09:32:14.936Z,38.63
2022-08-11T09:35:18.059Z,37.82
2022-08-11T09:38:57.535Z,36.23
2022-08-11T09:42:04.353Z,37.31
2022-08-11T09:45:07.872Z,36.22
2022-08-11T09:48:13.229Z,35.08
2022-08-11T09:51:18.246Z,34.79
2022-08-11T09:54:23.036Z,35.94
2022-08-11T09:57:46.072Z,36.46
2022-08-11T10:00:50.539Z,33.54
2022-08-11T10:03:56.251Z,33.46
2022-08-11T10:07:06.835Z,33.97
2022-08-11T10:10:11.665Z,33.69
2022-08-11T10:14:10.067Z,31.18
2022-08-11T10:16:42.863Z,33.37
2022-08-11T10:20:04.459Z,31.06
2022-08-11T10:23:28.867Z,30.75
2022-08-11T10:26:54.320Z,30.50
2022-08-11T10:30:16.598Z,30.35
2022-08-11T10:33:42.966Z,29.10
2022-08-11T10:37:02.938Z,27.20
2022-08-11T10:40:10.998Z,27.99
2022-08-11T10:43:17.063Z,29.13
2022-08-11T10:46:57.395Z,28.93
2022-08-11T10:50:18.758Z,28.93
2022-08-11T10:53:39.556Z,25.78
2022-08-11T10:57:00.566Z,27.72
2022-08-11T11:00:05.889Z,26.97
2022-08-11T11:03:23.002Z,26.45
2022-08-11T11:06:30.212Z,28.44
2022-08-11T11:09:35.651Z,28.60
2022-08-11T11:13:00.472Z,26.01
2022-08-11T11:16:20.963Z,25.89
2022-08-11T11:19:27.127Z,26.69
2022-08-11T11:22:40.789Z,26.85
2022-08-11T11:26:07.289Z,26.38
2022-08-11T11:29:40.511Z,26.32
2022-08-11T11:32:50.234Z,27.75
2022-08-11T11:36:11.723Z,25.37
2022-08-11T11:39:14.843Z,27.35
2022-08-11T11:42:18.635Z,24.01
2022-08-11T11:45:25.218Z,24.89
2022-08-11T11:48:28.822Z,26.21
2022-08-11T11:51:33.124Z,26.85
2022-08-11T11:54:37.500Z,26.18
2022-08-11T11:58:02.604Z,24.68
2022-08-11T12:01:19.984Z,24.46
2022-08-11T12:04:23.925Z,25.68
2022-08-11T12:07:45.557Z,26.15
2022-08-11T12:11:20.540Z,25.13
2022-08-11T12:14:25.670Z,25.33
2022-08-11T12:17:28.474Z,25.57
2022-08-11T12:20:34.182Z,26.04
2022-08-11T12:24:04.620Z,25.33
2022-08-11T12:27:25.183Z,25.35
2022-08-11T12:30:29.107Z,24.73
2022-08-11T12:33:34.137Z,23.50
2022-08-11T12:36:40.190Z,24.67
2022-08-11T12:40:16.939Z,23.29
2022-08-11T12:43:56.849Z,23.20
2022-08-11T12:47:02.936Z,22.95
2022-08-11T12:50:23.695Z,23.70
2022-08-11T12:53:30.646Z,23.42
2022-08-11T12:56:59.642Z,23.68
2022-08-11T13:00:20.898Z,23.63
2022-08-11T13:03:42.642Z,23.96
2022-08-11T13:06:47.104Z,24.21
2022-08-11T13:09:51.522Z,23.89
2022-08-11T13:12:54.623Z,23.72
2022-08-11T13:15:58.290Z,24.02
2022-08-11T13:19:01.774Z,24.21
2022-08-11T13:22:05.164Z,24.98
2022-08-11T13:25:09.230Z,24.50
2022-08-11T13:28:21.287Z,22.72
2022-08-11T13:31:23.968Z,22.59
2022-08-11T13:34:30.977Z,21.88
2022-08-11T13:38:18.504Z,23.30
2022-08-11T13:40:57.971Z,23.71
2022-08-11T13:44:02.624Z,23.02
2022-08-11T13:47:07.742Z,23.67
2022-08-11T13:50:12.485Z,23.13
2022-08-11T13:53:18.142Z,24.15
2022-08-11T13:56:23.217Z,24.52
2022-08-11T13:59:29.858Z,23.26
2022-08-11T14:02:34.442Z,23.11
2022-08-11T14:05:45.879Z,23.12
2022-08-11T14:08:53.555Z,22.53
2022-08-11T14:12:21.231Z,23.54
2022-08-11T14:15:30.201Z,23.50
2022-08-11T14:18:34.810Z,25.25
2022-08-11T14:22:02.529Z,25.86
2022-08-11T14:25:10.557Z,25.42
2022-08-11T14:28:33.518Z,25.91
2022-08-11T14:31:39.892Z,27.21
2022-08-11T14:34:44.376Z,26.59
2022-08-11T14:37:48.556Z,26.60
2022-08-11T14:41:10.090Z,27.22
2022-08-11T14:44:30.920Z,28.81
2022-08-11T14:47:37.424Z,28.60
2022-08-11T14:50:40.532Z,28.35
2022-08-11T14:53:52.001Z,28.48
2022-08-11T14:57:00.713Z,28.97
2022-08-11T15:00:06.764Z,28.93
2022-08-11T15:03:13.771Z,29.90
2022-08-11T15:06:16.930Z,31.45
2022-08-11T15:09:19.913Z,31.98
2022-08-11T15:12:32.640Z,33.26
2022-08-11T15:15:55.828Z,35.70
2022-08-11T15:19:01.707Z,41.91
2022-08-11T15:22:27.384Z,36.53
2022-08-11T15:25:34.486Z,39.12
2022-08-11T15:28:58.001Z,41.47
2022-08-11T15:32:18.573Z,39.75
2022-08-11T15:35:40.494Z,39.00
2022-08-11T15:38:55.252Z,37.44
2022-08-11T15:42:20.665Z,38.42
2022-08-11T15:45:43.513Z,38.49
2022-08-11T15:48:49.946Z,38.16
2022-08-11T15:52:02.227Z,38.90
2022-08-11T15:55:08.989Z,38.17
2022-08-11T15:58:31.849Z,38.72
2022-08-11T16:01:53.960Z,41.44
2022-08-11T16:04:59.525Z,38.89
2022-08-11T16:08:04.946Z,40.22
2022-08-11T16:11:09.709Z,39.97
2022-08-11T16:14:34.070Z,38.48
2022-08-11T16:17:41.301Z,39.38
2022-08-11T16:20:45.773Z,39.53
2022-08-11T16:23:51.448Z,40.60
2022-08-11T16:27:07.693Z,40.32
2022-08-11T16:30:15.132Z,40.85
2022-08-11T16:33:48.504Z,41.76
2022-08-11T16:36:58.565Z,41.73
2022-08-11T16:40:02.857Z,40.81
2022-08-11T16:43:26.363Z,40.56
2022-08-11T16:46:46.950Z,40.18
2022-08-11T16:49:52.881Z,40.00
2022-08-11T16:52:55.773Z,40.52
2022-08-11T16:56:04.609Z,41.28
2022-08-11T16:59:16.745Z,41.72
2022-08-11T17:02:36.965Z,40.75
2022-08-11T17:06:02.971Z,41.29
2022-08-11T17:09:24.364Z,41.60
2022-08-11T17:12:49.833Z,42.74
2022-08-11T17:16:07.862Z,41.32
2022-08-11T17:19:13.849Z,42.42
2022-08-11T17:22:36.669Z,41.66
2022-08-11T17:26:03.659Z,42.27
2022-08-11T17:29:07.031Z,41.37
2022-08-11T17:32:28.468Z,42.09
2022-08-11T17:35:35.089Z,42.78
2022-08-11T17:38:39.739Z,42.92
2022-08-11T17:42:02.050Z,43.31
2022-08-11T17:45:25.097Z,43.60
2022-08-11T17:48:29.944Z,45.48
2022-08-11T17:51:50.579Z,44.90
2022-08-11T17:55:13.381Z,45.18
2022-08-11T17:58:36.656Z,45.36
2022-08-11T18:01:42.513Z,44.66
2022-08-11T18:04:49.388Z,46.35
2022-08-11T18:08:13.295Z,44.07
2022-08-11T18:12:06.634Z,44.41
2022-08-11T18:15:15.507Z,46.31
2022-08-11T18:18:38.654Z,46.68
2022-08-11T18:22:14.166Z,47.96
2022-08-11T18:25:45.088Z,47.55
2022-08-11T18:29:09.349Z,47.77
2022-08-11T18:32:49.257Z,48.97
2022-08-11T18:36:14.669Z,49.05
2022-08-11T18:39:39.488Z,50.29
2022-08-11T18:43:02.476Z,50.33
2022-08-11T18:46:26.344Z,51.01
2022-08-11T18:50:02.434Z,50.38
2022-08-11T18:53:29.296Z,51.94
2022-08-11T18:56:50.387Z,49.79
2022-08-11T19:00:12.132Z,50.95
2022-08-11T19:03:43.191Z,50.89
2022-08-11T19:07:06.375Z,51.74
2022-08-11T19:10:29.436Z,51.16
2022-08-11T19:13:51.671Z,52.10
2022-08-11T19:17:14.664Z,52.90
2022-08-11T19:20:55.695Z,52.48
2022-08-11T19:24:19.632Z,52.05
2022-08-11T19:27:43.025Z,52.82
2022-08-11T19:31:04.134Z,53.18
2022-08-11T19:34:25.002Z,53.13
2022-08-11T19:37:46.701Z,53.70
2022-08-11T19:41:08.082Z,54.02
2022-08-11T19:44:32.568Z,54.59
2022-08-11T19:48:14.176Z,55.16
2022-08-11T19:51:34.415Z,55.41
2022-08-11T19:54:56.305Z,55.64
2022-08-11T19:58:16.373Z,55.46
2022-08-11T20:01:37.757Z,55.91
2022-08-11T20:05:17.614Z,56.53
2022-08-11T20:08:38.796Z,56.54
2022-08-11T20:12:02.864Z,56.61
2022-08-11T20:15:24.623Z,57.09
2022-08-11T20:18:47.202Z,57.79
2022-08-11T20:22:08.439Z,57.86
2022-08-11T20:25:31.593Z,58.07
2022-08-11T20:28:53.433Z,58.10
2022-08-11T20:32:14.016Z,58.18
2022-08-11T20:35:36.152Z,58.64
2022-08-11T20:38:56.836Z,59.91
2022-08-11T20:42:17.707Z,60.22
2022-08-11T20:45:52.258Z,59.11
2022-08-11T20:49:20.594Z,59.41
2022-08-11T20:56:28.760Z,60.17
2022-08-11T20:59:56.634Z,61.13
2022-08-11T21:03:36.339Z,62.26
2022-08-11T21:06:58.997Z,61.97
2022-08-11T21:10:23.250Z,61.42
2022-08-11T21:13:48.225Z,62.38
2022-08-11T21:17:27.699Z,64.30
2022-08-11T21:20:50.284Z,63.99
2022-08-11T21:24:11.052Z,63.48
2022-08-11T21:27:35.579Z,63.50
2022-08-11T21:30:58.001Z,64.37
2022-08-11T21:34:18.948Z,63.99
2022-08-11T21:37:39.518Z,64.97
2022-08-11T21:41:02.783Z,65.75
2022-08-11T21:44:25.470Z,64.61
2022-08-11T21:47:47.067Z,66.70
2022-08-11T21:51:07.129Z,65.74
2022-08-11T21:54:28.339Z,66.33
2022-08-11T21:57:50.437Z,66.62
2022-08-11T22:01:13.534Z,67.28
2022-08-11T22:04:35.305Z,67.97
2022-08-11T22:07:55.978Z,67.40
2022-08-11T22:11:17.063Z,68.36
2022-08-11T22:14:53.050Z,69.42
2022-08-11T22:18:14.445Z,69.67
2022-08-11T22:21:59.585Z,70.10
2022-08-11T22:25:18.413Z,70.58
2022-08-11T22:28:38.856Z,70.41
2022-08-11T22:32:00.486Z,70.09
2022-08-11T22:35:24.162Z,70.14
2022-08-11T22:38:51.455Z,71.61
2022-08-11T22:42:11.507Z,71.22
2022-08-11T22:45:31.900Z,71.11
2022-08-11T22:48:54.208Z,70.78
2022-08-11T22:52:18.033Z,71.28
2022-08-11T22:55:39.264Z,70.92
2022-08-11T22:58:59.943Z,71.08
2022-08-11T23:02:21.377Z,71.90
2022-08-11T23:05:42.834Z,72.56
2022-08-11T23:09:04.971Z,72.39
2022-08-11T23:12:26.121Z,72.48
2022-08-11T23:15:46.787Z,72.39
2022-08-11T23:19:08.741Z,71.84
2022-08-11T23:22:39.488Z,71.99
2022-08-11T23:26:11.524Z,71.12
2022-08-11T23:29:33.397Z,69.90
2022-08-11T23:32:54.964Z,70.71
2022-08-11T23:36:36.158Z,70.88
2022-08-11T23:39:55.601Z,70.22
2022-08-11T23:43:17.448Z,70.66
2022-08-11T23:46:39.413Z,70.10
2022-08-11T23:50:00.264Z,69.61
2022-08-11T23:53:21.279Z,69.58
2022-08-11T23:56:41.807Z,70.46
